Terminal Aerodrome Forecast
Issued by NWS Flagstaff, AZ

Home | Current Version | Previous Version | Text Only | Print | Product List | Glossary On
Versions: 1 2 3 4 5 6 7 8 9 10 11 12 13 14
000
FTUS45 KFGZ 182100 AAA
TAFINW
TAF AMD
KINW 182102Z 1821/1918 21017G26KT P6SM VCSH SCT080 OVC150
      TEMPO 1821/1901 VRB15G25KT -SHRA BKN070
     FM190100 19011KT P6SM BKN080=

USA.gov is the U.S. government's official web portal to all federal, state and local government web resources and services.